createdAt,value
2023-04-29T00:00:11.118Z,20.25
2023-04-29T00:02:38.310Z,23.13
2023-04-29T00:05:05.728Z,21.90
2023-04-29T00:07:32.739Z,20.75
2023-04-29T00:09:59.743Z,22.15
2023-04-29T00:12:26.621Z,21.90
2023-04-29T00:14:53.527Z,26.95
2023-04-29T00:17:20.112Z,19.88
2023-04-29T00:19:46.896Z,26.55
2023-04-29T00:22:13.671Z,29.65
2023-04-29T00:24:40.382Z,29.80
2023-04-29T00:27:07.271Z,28.15
2023-04-29T00:29:33.850Z,29.33
2023-04-29T00:32:00.498Z,35.28
2023-04-29T00:34:27.126Z,27.45
2023-04-29T00:36:53.950Z,27.83
2023-04-29T00:39:20.671Z,27.75
2023-04-29T00:41:47.323Z,29.10
2023-04-29T00:44:14.006Z,31.38
2023-04-29T00:46:41.289Z,38.25
2023-04-29T00:49:08.850Z,31.33
2023-04-29T00:51:36.949Z,28.50
2023-04-29T00:54:05.012Z,34.17
2023-04-29T00:56:33.910Z,31.38
2023-04-29T00:59:02.651Z,31.75
2023-04-29T01:01:32.742Z,27.35
2023-04-29T01:04:00.336Z,36.15
2023-04-29T01:06:41.915Z,33.45
2023-04-29T01:09:23.498Z,36.22
2023-04-29T01:12:20.444Z,30.88
2023-04-29T01:15:04.296Z,34.35
2023-04-29T01:17:37.506Z,37.80
2023-04-29T01:20:05.874Z,31.15
2023-04-29T01:22:32.492Z,36.35
2023-04-29T01:24:59.282Z,34.13
2023-04-29T01:27:31.815Z,35.75
2023-04-29T01:30:40.188Z,34.60
2023-04-29T01:33:20.272Z,29.73
2023-04-29T01:35:58.848Z,32.35
2023-04-29T01:38:42.442Z,31.67
2023-04-29T01:41:19.092Z,27.75
2023-04-29T01:43:50.028Z,27.02
2023-04-29T01:46:19.393Z,26.10
2023-04-29T01:48:46.390Z,23.50
2023-04-29T01:51:13.484Z,26.60
2023-04-29T01:53:40.474Z,26.60
2023-04-29T01:56:08.081Z,27.25
2023-04-29T01:58:34.936Z,33.97
2023-04-29T02:01:01.571Z,26.05
2023-04-29T02:03:28.854Z,21.50
2023-04-29T02:05:55.648Z,26.33
2023-04-29T02:08:22.353Z,21.60
2023-04-29T02:10:54.781Z,24.20
2023-04-29T02:13:21.586Z,25.48
2023-04-29T02:15:48.262Z,22.52
2023-04-29T02:18:15.301Z,29.60
2023-04-29T02:20:42.486Z,22.25
2023-04-29T02:23:09.221Z,25.92
2023-04-29T02:25:36.403Z,28.48
2023-04-29T02:28:03.096Z,22.75
2023-04-29T02:30:30.401Z,21.83
2023-04-29T02:32:57.242Z,25.73
2023-04-29T02:35:23.924Z,21.88
2023-04-29T02:37:50.519Z,25.15
2023-04-29T02:40:17.191Z,20.52
2023-04-29T02:42:43.778Z,28.05
2023-04-29T02:45:10.982Z,25.15
2023-04-29T02:47:37.645Z,25.67
2023-04-29T02:50:04.817Z,18.80
2023-04-29T02:52:31.925Z,17.88
2023-04-29T02:54:58.512Z,18.90
2023-04-29T02:57:25.133Z,24.27
2023-04-29T02:59:51.878Z,27.05
2023-04-29T03:02:18.764Z,20.42
2023-04-29T03:04:45.592Z,22.25
2023-04-29T03:07:12.317Z,20.75
2023-04-29T03:09:39.154Z,20.25
2023-04-29T03:12:05.827Z,25.23
2023-04-29T03:14:32.426Z,22.83
2023-04-29T03:16:59.149Z,22.98
2023-04-29T03:19:25.799Z,21.50
2023-04-29T03:21:53.922Z,19.95
2023-04-29T03:24:20.826Z,20.38
2023-04-29T03:26:47.465Z,25.98
2023-04-29T03:29:14.097Z,20.40
2023-04-29T03:31:40.872Z,24.30
2023-04-29T03:34:07.503Z,19.70
2023-04-29T03:36:34.286Z,23.52
2023-04-29T03:39:01.064Z,24.08
2023-04-29T03:41:27.686Z,19.08
2023-04-29T03:43:54.889Z,20.10
2023-04-29T03:46:21.816Z,23.00
2023-04-29T03:48:48.592Z,18.30
2023-04-29T03:51:15.312Z,19.88
2023-04-29T03:53:45.260Z,20.67
2023-04-29T03:56:11.854Z,19.42
2023-04-29T03:58:38.499Z,24.02
2023-04-29T04:01:05.418Z,20.00
2023-04-29T04:03:32.687Z,18.63
2023-04-29T04:05:59.529Z,18.85
2023-04-29T04:08:26.159Z,22.42
2023-04-29T04:10:52.717Z,23.38
2023-04-29T04:13:19.367Z,21.10
2023-04-29T04:15:54.501Z,19.88
2023-04-29T04:18:21.241Z,21.77
2023-04-29T04:20:47.834Z,21.35
2023-04-29T04:23:14.868Z,26.25
2023-04-29T04:25:48.558Z,23.35
2023-04-29T04:28:15.770Z,23.35
2023-04-29T04:30:42.958Z,21.60
2023-04-29T04:33:10.700Z,18.83
2023-04-29T04:35:37.370Z,20.25
2023-04-29T04:38:03.978Z,20.77
2023-04-29T04:40:30.756Z,20.33
2023-04-29T04:42:57.425Z,18.33
2023-04-29T04:45:24.194Z,17.58
2023-04-29T04:47:50.890Z,18.42
2023-04-29T04:50:17.719Z,18.48
2023-04-29T04:52:44.328Z,18.73
2023-04-29T04:55:12.302Z,16.13
2023-04-29T04:57:40.389Z,14.88
2023-04-29T05:00:07.568Z,16.65
2023-04-29T05:02:34.345Z,17.10
2023-04-29T05:05:01.267Z,19.40
2023-04-29T05:07:27.878Z,17.13
2023-04-29T05:09:54.525Z,19.95
2023-04-29T05:12:21.260Z,13.02
2023-04-29T05:14:47.846Z,14.05
2023-04-29T05:17:14.420Z,16.05
2023-04-29T05:19:41.054Z,17.63
2023-04-29T05:22:07.721Z,14.07
2023-04-29T05:24:34.268Z,13.23
2023-04-29T05:27:00.868Z,13.50
2023-04-29T05:29:28.006Z,13.27
2023-04-29T05:31:54.613Z,14.30
2023-04-29T05:34:21.257Z,15.27
2023-04-29T05:36:47.835Z,18.35
2023-04-29T05:39:14.670Z,15.98
2023-04-29T05:41:41.291Z,13.82
2023-04-29T05:44:07.865Z,12.25
2023-04-29T05:46:34.623Z,15.43
2023-04-29T05:49:01.314Z,14.05
2023-04-29T05:51:28.309Z,12.38
2023-04-29T05:53:55.377Z,13.70
2023-04-29T05:56:22.402Z,13.18
2023-04-29T05:58:49.044Z,20.38
2023-04-29T06:01:17.341Z,17.33
2023-04-29T06:03:44.431Z,14.60
2023-04-29T06:06:11.672Z,13.65
2023-04-29T06:08:38.460Z,13.45
2023-04-29T06:11:05.472Z,11.70
2023-04-29T06:13:32.858Z,14.68
2023-04-29T06:15:59.601Z,15.90
2023-04-29T06:18:26.362Z,15.48
2023-04-29T06:20:52.944Z,22.48
2023-04-29T06:23:19.538Z,19.55
2023-04-29T06:25:46.211Z,16.55
2023-04-29T06:28:12.773Z,17.15
2023-04-29T06:30:39.410Z,12.18
2023-04-29T06:33:06.212Z,16.63
2023-04-29T06:35:32.899Z,15.30
2023-04-29T06:37:59.529Z,17.33
2023-04-29T06:40:26.215Z,16.48
2023-04-29T06:42:52.921Z,17.23
2023-04-29T06:45:19.560Z,18.98
2023-04-29T06:47:46.598Z,16.40
2023-04-29T06:50:13.241Z,16.88
2023-04-29T06:52:39.979Z,21.20
2023-04-29T06:55:07.024Z,20.23
2023-04-29T06:57:33.762Z,23.33
2023-04-29T07:00:00.849Z,19.88
2023-04-29T07:02:27.550Z,17.60
2023-04-29T07:04:54.462Z,20.55
2023-04-29T07:07:21.215Z,18.55
2023-04-29T07:09:51.269Z,20.60
2023-04-29T07:12:18.061Z,19.20
2023-04-29T07:14:44.710Z,21.77
2023-04-29T07:17:13.474Z,16.35
2023-04-29T07:19:40.943Z,17.23
2023-04-29T07:22:07.580Z,17.67
2023-04-29T07:24:34.390Z,17.33
2023-04-29T07:27:00.971Z,18.75
2023-04-29T07:29:27.560Z,20.52
2023-04-29T07:31:54.215Z,18.30
2023-04-29T07:34:20.949Z,18.55
2023-04-29T07:36:47.582Z,13.45
2023-04-29T07:39:15.540Z,16.48
2023-04-29T07:41:42.167Z,15.98
2023-04-29T07:44:08.777Z,14.90
2023-04-29T07:46:35.434Z,15.68
2023-04-29T07:49:02.095Z,13.77
2023-04-29T07:51:29.204Z,16.48
2023-04-29T07:53:56.342Z,15.40
2023-04-29T07:56:23.602Z,15.52
2023-04-29T07:58:50.348Z,14.52
2023-04-29T08:01:16.961Z,16.17
2023-04-29T08:03:43.793Z,13.40
2023-04-29T08:06:10.919Z,15.95
2023-04-29T08:08:37.575Z,16.73
2023-04-29T08:11:04.802Z,10.98
2023-04-29T08:13:31.447Z,15.13
2023-04-29T08:15:58.121Z,15.30
2023-04-29T08:18:27.990Z,17.35
2023-04-29T08:20:54.561Z,16.52
2023-04-29T08:23:21.204Z,10.65
2023-04-29T08:25:51.916Z,15.73
2023-04-29T08:28:19.713Z,11.65
2023-04-29T08:30:46.712Z,10.60
2023-04-29T08:33:13.723Z,76.18
2023-04-29T08:35:41.284Z,14.85
2023-04-29T08:38:09.339Z,10.13
2023-04-29T08:40:41.460Z,11.23
2023-04-29T08:43:10.268Z,12.65
2023-04-29T08:45:37.584Z,12.80
2023-04-29T08:48:05.119Z,11.82
2023-04-29T08:50:32.825Z,9.52
2023-04-29T08:52:59.502Z,14.10
2023-04-29T08:55:27.632Z,13.10
2023-04-29T08:57:56.663Z,8.98
2023-04-29T09:00:24.951Z,9.98
2023-04-29T09:02:55.823Z,10.40
2023-04-29T09:05:23.817Z,8.48
2023-04-29T09:07:51.685Z,10.60
2023-04-29T09:10:21.809Z,9.40
2023-04-29T09:12:48.466Z,13.38
2023-04-29T09:15:15.136Z,10.98
2023-04-29T09:17:46.975Z,7.47
2023-04-29T09:20:22.797Z,8.00
2023-04-29T09:22:55.805Z,8.18
2023-04-29T09:25:22.539Z,9.43
2023-04-29T09:27:49.366Z,10.52
2023-04-29T09:30:17.417Z,11.95
2023-04-29T09:32:47.748Z,7.97
2023-04-29T09:35:26.735Z,6.90
2023-04-29T09:38:07.678Z,9.00
2023-04-29T09:40:43.407Z,7.93
2023-04-29T09:43:16.047Z,8.45
2023-04-29T09:45:45.713Z,10.30
2023-04-29T09:48:14.437Z,7.90
2023-04-29T09:50:43.766Z,10.77
2023-04-29T09:53:11.836Z,8.73
2023-04-29T09:55:53.563Z,7.28
2023-04-29T09:58:40.208Z,9.63
2023-04-29T10:01:07.448Z,7.82
2023-04-29T10:03:37.261Z,6.63
2023-04-29T10:06:07.815Z,9.98
2023-04-29T10:08:35.223Z,8.63
2023-04-29T10:11:05.653Z,7.50
2023-04-29T10:13:35.005Z,6.78
2023-04-29T10:16:11.515Z,6.15
2023-04-29T10:18:42.711Z,8.55
2023-04-29T10:21:09.862Z,8.20
2023-04-29T10:23:37.703Z,7.97
2023-04-29T10:26:07.110Z,6.15
2023-04-29T10:28:37.888Z,7.35
2023-04-29T10:31:06.733Z,6.43
2023-04-29T10:33:35.706Z,8.23
2023-04-29T10:36:03.653Z,9.50
2023-04-29T10:38:42.563Z,7.13
2023-04-29T10:41:17.066Z,7.03
2023-04-29T10:43:43.764Z,9.82
2023-04-29T10:46:27.263Z,5.43
2023-04-29T10:49:01.117Z,5.40
2023-04-29T10:51:35.747Z,6.43
2023-04-29T10:54:15.486Z,7.30
2023-04-29T10:56:52.357Z,6.50
2023-04-29T10:59:27.962Z,8.13
2023-04-29T11:01:55.237Z,8.43
2023-04-29T11:04:23.022Z,6.22
2023-04-29T11:07:01.100Z,7.10
2023-04-29T11:09:29.671Z,9.93
2023-04-29T11:12:05.602Z,7.07
2023-04-29T11:14:56.368Z,7.72
2023-04-29T11:17:24.920Z,6.40
2023-04-29T11:19:53.631Z,7.10
2023-04-29T11:22:23.335Z,5.68
2023-04-29T11:24:58.324Z,6.28
2023-04-29T11:27:33.352Z,5.40
2023-04-29T11:30:01.490Z,8.50
2023-04-29T11:32:30.189Z,7.47
2023-04-29T11:35:17.964Z,4.70
2023-04-29T11:37:46.230Z,5.32
2023-04-29T11:40:13.949Z,6.32
2023-04-29T11:42:50.371Z,5.18
2023-04-29T11:45:18.312Z,6.88
2023-04-29T11:47:46.530Z,3.97
2023-04-29T11:50:16.743Z,5.38
2023-04-29T11:52:44.654Z,6.07
2023-04-29T11:55:12.049Z,7.47
2023-04-29T11:57:40.628Z,4.43
2023-04-29T12:00:14.633Z,5.18
2023-04-29T12:05:13.308Z,8.05
2023-04-29T12:07:40.398Z,6.95
2023-04-29T12:10:12.320Z,6.68
2023-04-29T12:12:41.351Z,5.25
2023-04-29T12:15:10.269Z,4.32
2023-04-29T12:17:38.224Z,6.30
2023-04-29T12:20:06.514Z,7.03
2023-04-29T12:22:33.832Z,4.35
2023-04-29T12:25:03.171Z,5.18
2023-04-29T12:27:30.134Z,4.85
2023-04-29T12:29:57.404Z,5.10
2023-04-29T12:32:25.258Z,4.28
2023-04-29T12:34:53.240Z,3.85
2023-04-29T12:37:22.544Z,4.40
2023-04-29T12:39:57.255Z,5.53
2023-04-29T12:42:33.148Z,8.77
2023-04-29T12:44:59.781Z,5.10
2023-04-29T12:47:33.950Z,4.43
2023-04-29T12:52:27.607Z,6.55
2023-04-29T12:54:54.584Z,5.40
2023-04-29T12:57:22.354Z,4.70
2023-04-29T12:59:48.960Z,7.15
2023-04-29T13:02:16.327Z,7.05
2023-04-29T13:04:50.727Z,5.07
2023-04-29T13:07:18.197Z,8.13
2023-04-29T13:09:44.834Z,9.23
2023-04-29T13:12:11.498Z,8.10
2023-04-29T13:14:38.173Z,9.10
2023-04-29T13:17:05.463Z,5.70
2023-04-29T13:19:49.744Z,9.38
2023-04-29T13:22:18.313Z,8.20
2023-04-29T13:24:46.887Z,7.07
2023-04-29T13:27:13.751Z,8.63
2023-04-29T13:29:41.643Z,7.07
2023-04-29T13:32:08.799Z,6.40
2023-04-29T13:34:35.896Z,7.15
2023-04-29T13:37:03.842Z,5.70
2023-04-29T13:39:30.439Z,9.15
2023-04-29T13:41:59.423Z,8.27
2023-04-29T13:44:34.100Z,11.02
2023-04-29T13:47:07.524Z,5.43
2023-04-29T13:50:05.748Z,7.85
2023-04-29T13:55:25.876Z,6.00
2023-04-29T14:00:25.063Z,9.68
2023-04-29T14:05:26.421Z,6.95
2023-04-29T14:07:53.412Z,6.85
2023-04-29T14:10:23.490Z,4.25
2023-04-29T14:12:50.276Z,5.85
2023-04-29T14:15:20.276Z,6.65
2023-04-29T14:17:47.102Z,5.32
2023-04-29T14:20:13.941Z,4.70
2023-04-29T14:22:40.606Z,5.68
2023-04-29T14:25:08.360Z,6.10
2023-04-29T14:27:36.740Z,6.03
2023-04-29T14:30:04.739Z,4.82
2023-04-29T14:32:31.615Z,5.72
2023-04-29T14:34:58.630Z,8.98
2023-04-29T14:37:26.769Z,4.75
2023-04-29T14:39:53.415Z,8.35
2023-04-29T14:42:21.632Z,6.72
2023-04-29T14:44:48.347Z,8.50
2023-04-29T14:47:15.025Z,4.85
2023-04-29T14:49:45.665Z,5.90
2023-04-29T14:52:19.690Z,4.53
2023-04-29T14:57:12.967Z,6.15
2023-04-29T14:59:39.578Z,7.15
2023-04-29T15:02:06.858Z,9.10
2023-04-29T15:04:34.318Z,6.72
2023-04-29T15:07:00.974Z,4.38
2023-04-29T15:09:28.656Z,5.93
2023-04-29T15:11:55.941Z,6.90
2023-04-29T15:14:22.515Z,6.47
2023-04-29T15:16:49.284Z,6.40
2023-04-29T15:19:16.025Z,11.18
2023-04-29T15:21:42.569Z,5.53
2023-04-29T15:24:09.344Z,5.90
2023-04-29T15:26:36.061Z,6.05
2023-04-29T15:29:03.376Z,5.93
2023-04-29T15:31:30.806Z,7.78
2023-04-29T15:33:57.547Z,5.25
2023-04-29T15:36:29.956Z,7.35
2023-04-29T15:38:56.916Z,5.95
2023-04-29T15:41:28.271Z,3.92
2023-04-29T15:43:57.226Z,3.80
2023-04-29T15:46:24.073Z,5.55
2023-04-29T15:48:50.765Z,5.32
2023-04-29T15:51:18.106Z,5.15
2023-04-29T15:53:44.901Z,6.47
2023-04-29T15:56:11.514Z,6.40
2023-04-29T15:58:38.150Z,3.75
2023-04-29T16:01:05.037Z,4.90
2023-04-29T16:03:31.777Z,5.55
2023-04-29T16:05:58.584Z,3.95
2023-04-29T16:08:25.525Z,5.43
2023-04-29T16:10:54.791Z,5.82
2023-04-29T16:13:21.379Z,4.97
2023-04-29T16:15:48.127Z,5.03
2023-04-29T16:18:14.988Z,5.90
2023-04-29T16:20:41.943Z,4.32
2023-04-29T16:23:10.439Z,3.97
2023-04-29T16:25:37.074Z,4.97
2023-04-29T16:28:03.691Z,6.47
2023-04-29T16:30:30.433Z,5.00
2023-04-29T16:32:57.331Z,4.32
2023-04-29T16:35:26.346Z,6.30
2023-04-29T16:37:56.138Z,7.90
2023-04-29T16:40:24.092Z,5.70
2023-04-29T16:42:53.336Z,4.28
2023-04-29T16:45:22.297Z,5.68
2023-04-29T16:47:53.168Z,5.90
2023-04-29T16:50:20.120Z,7.80
2023-04-29T16:52:46.726Z,6.05
2023-04-29T16:55:13.527Z,4.10
2023-04-29T16:57:42.288Z,6.07
2023-04-29T17:00:11.121Z,7.47
2023-04-29T17:02:40.281Z,6.68
2023-04-29T17:05:09.002Z,5.22
2023-04-29T17:07:35.824Z,5.28
2023-04-29T17:10:04.827Z,4.20
2023-04-29T17:12:31.481Z,4.65
2023-04-29T17:14:58.190Z,2.63
2023-04-29T17:17:24.943Z,2.10
2023-04-29T17:19:51.955Z,4.95
2023-04-29T17:22:19.741Z,5.88
2023-04-29T17:24:46.446Z,3.47
2023-04-29T17:27:13.519Z,2.33
2023-04-29T17:29:41.042Z,5.45
2023-04-29T17:32:11.395Z,2.20
2023-04-29T17:34:38.430Z,4.22
2023-04-29T17:37:06.150Z,2.03
2023-04-29T17:39:34.108Z,3.05
2023-04-29T17:42:03.730Z,1.67
2023-04-29T17:44:30.524Z,2.35
2023-04-29T17:46:57.294Z,3.90
2023-04-29T17:49:23.937Z,3.55
2023-04-29T17:51:50.703Z,3.28
2023-04-29T17:54:17.379Z,1.13
2023-04-29T17:56:44.196Z,3.47
2023-04-29T17:59:11.159Z,1.85
2023-04-29T18:01:37.905Z,4.25
2023-04-29T18:04:05.830Z,0.75
2023-04-29T18:06:32.679Z,2.33
2023-04-29T18:08:59.500Z,3.05
2023-04-29T18:11:26.213Z,1.58
2023-04-29T18:13:54.272Z,1.83
2023-04-29T18:16:21.244Z,2.20
2023-04-29T18:18:51.376Z,2.47
2023-04-29T18:21:22.786Z,3.00
2023-04-29T18:23:49.791Z,2.47
2023-04-29T18:26:16.499Z,2.75
2023-04-29T18:28:46.160Z,1.75
2023-04-29T18:31:13.764Z,3.80
2023-04-29T18:33:40.529Z,2.05
2023-04-29T18:36:07.361Z,3.78
2023-04-29T18:38:34.105Z,6.47
2023-04-29T18:41:00.780Z,4.25
2023-04-29T18:43:30.111Z,3.25
2023-04-29T18:45:58.769Z,3.90
2023-04-29T18:48:28.702Z,2.58
2023-04-29T18:50:56.265Z,3.55
2023-04-29T18:53:22.902Z,1.65
2023-04-29T18:55:49.535Z,2.92
2023-04-29T18:58:16.460Z,4.68
2023-04-29T19:00:43.148Z,2.28
2023-04-29T19:03:09.933Z,2.92
2023-04-29T19:05:36.701Z,2.95
2023-04-29T19:08:03.437Z,3.58
2023-04-29T19:10:30.947Z,1.95
2023-04-29T19:12:57.551Z,4.45
2023-04-29T19:15:27.889Z,3.25
2023-04-29T19:17:55.147Z,3.00
2023-04-29T19:20:22.050Z,2.53
2023-04-29T19:22:48.969Z,3.83
2023-04-29T19:25:18.272Z,2.80
2023-04-29T19:27:45.158Z,4.40
2023-04-29T19:30:12.931Z,4.38
2023-04-29T19:32:39.698Z,2.63
2023-04-29T19:35:06.903Z,3.72
2023-04-29T19:37:33.509Z,4.82
2023-04-29T19:40:00.176Z,4.60
2023-04-29T19:42:27.089Z,2.90
2023-04-29T19:44:53.638Z,2.75
2023-04-29T19:47:20.268Z,2.80
2023-04-29T19:49:47.252Z,4.55
2023-04-29T19:52:13.866Z,3.88
2023-04-29T19:54:40.776Z,4.47
2023-04-29T19:57:07.814Z,2.33
2023-04-29T19:59:34.417Z,2.70
2023-04-29T20:02:01.040Z,2.00
2023-04-29T20:04:27.794Z,3.25
2023-04-29T20:06:54.441Z,4.20
2023-04-29T20:09:21.185Z,4.05
2023-04-29T20:11:47.763Z,2.63
2023-04-29T20:14:14.487Z,5.28
2023-04-29T20:16:41.539Z,3.13
2023-04-29T20:19:08.157Z,3.53
2023-04-29T20:21:38.041Z,4.60
2023-04-29T20:24:04.842Z,4.47
2023-04-29T20:26:31.486Z,4.18
2023-04-29T20:28:58.320Z,4.43
2023-04-29T20:31:25.034Z,4.93
2023-04-29T20:33:51.640Z,4.50
2023-04-29T20:36:18.600Z,4.38
2023-04-29T20:38:45.263Z,6.43
2023-04-29T20:41:11.906Z,5.65
2023-04-29T20:43:38.561Z,7.55
2023-04-29T20:46:05.367Z,6.00
2023-04-29T20:48:32.128Z,6.82
2023-04-29T20:50:58.794Z,6.47
2023-04-29T20:53:25.680Z,7.07
2023-04-29T20:55:52.390Z,5.30
2023-04-29T20:58:18.981Z,9.73
2023-04-29T21:00:45.681Z,6.20
2023-04-29T21:03:12.348Z,7.07
2023-04-29T21:05:38.943Z,7.80
2023-04-29T21:08:06.201Z,8.45
2023-04-29T21:10:33.053Z,6.43
2023-04-29T21:12:59.728Z,8.82
2023-04-29T21:15:26.978Z,8.18
2023-04-29T21:17:53.783Z,5.40
2023-04-29T21:20:20.490Z,7.97
2023-04-29T21:22:47.120Z,10.73
2023-04-29T21:25:13.745Z,10.30
2023-04-29T21:27:40.513Z,6.70
2023-04-29T21:30:07.756Z,8.30
2023-04-29T21:32:35.940Z,9.25
2023-04-29T21:35:02.642Z,5.68
2023-04-29T21:37:30.511Z,8.13
2023-04-29T21:39:58.275Z,7.47
2023-04-29T21:42:26.305Z,8.20
2023-04-29T21:44:58.288Z,7.68
2023-04-29T21:47:25.623Z,6.72
2023-04-29T21:49:53.972Z,7.20
2023-04-29T21:52:20.916Z,7.68
2023-04-29T21:54:47.537Z,6.40
2023-04-29T21:57:14.186Z,9.90
2023-04-29T21:59:40.793Z,8.35
2023-04-29T22:02:22.687Z,8.85
2023-04-29T22:04:50.842Z,7.47
2023-04-29T22:07:18.558Z,11.50
2023-04-29T22:09:49.670Z,8.20
2023-04-29T22:12:17.974Z,10.05
2023-04-29T22:14:45.194Z,8.52
2023-04-29T22:17:13.012Z,11.77
2023-04-29T22:19:39.774Z,7.68
2023-04-29T22:22:06.687Z,7.07
2023-04-29T22:24:33.343Z,8.45
2023-04-29T22:26:59.961Z,10.32
2023-04-29T22:29:26.613Z,8.57
2023-04-29T22:31:53.287Z,9.30
2023-04-29T22:34:20.041Z,7.38
2023-04-29T22:36:46.682Z,7.38
2023-04-29T22:39:13.255Z,7.45
2023-04-29T22:41:39.868Z,8.65
2023-04-29T22:44:06.476Z,12.05
2023-04-29T22:46:33.387Z,6.53
2023-04-29T22:49:00.252Z,8.45
2023-04-29T22:51:26.845Z,10.57
2023-04-29T22:53:53.487Z,7.53
2023-04-29T22:56:20.174Z,12.82
2023-04-29T22:58:46.849Z,10.40
2023-04-29T23:01:13.500Z,11.68
2023-04-29T23:03:40.394Z,10.15
2023-04-29T23:06:07.537Z,8.85
2023-04-29T23:08:34.199Z,11.23
2023-04-29T23:11:00.822Z,7.10
2023-04-29T23:13:27.488Z,8.23
2023-04-29T23:15:57.621Z,10.52
2023-04-29T23:18:24.303Z,9.48
2023-04-29T23:20:51.529Z,10.70
2023-04-29T23:23:18.346Z,11.32
2023-04-29T23:25:45.657Z,8.23
2023-04-29T23:28:12.316Z,9.10
2023-04-29T23:30:39.011Z,10.93
2023-04-29T23:33:05.683Z,8.88
2023-04-29T23:35:32.580Z,11.27
2023-04-29T23:37:59.306Z,8.52
2023-04-29T23:40:26.000Z,13.75
2023-04-29T23:42:52.648Z,13.10
2023-04-29T23:45:19.311Z,13.20
2023-04-29T23:47:45.946Z,11.40
2023-04-29T23:50:12.532Z,12.50
2023-04-29T23:52:39.217Z,9.65
2023-04-29T23:55:06.497Z,12.48
2023-04-29T23:57:33.186Z,11.93
